createdAt,value
2018-04-24T00:00:24.205Z,57.7
2018-04-24T00:01:14.263Z,57.7
2018-04-24T00:02:04.330Z,57.7
2018-04-24T00:02:54.403Z,57.6
2018-04-24T00:03:44.467Z,57.7
2018-04-24T00:04:33.954Z,57.6
2018-04-24T00:05:24.608Z,57.6
2018-04-24T00:06:14.665Z,57.6
2018-04-24T00:07:04.710Z,57.6
2018-04-24T00:07:54.795Z,57.6
2018-04-24T00:08:44.847Z,57.6
2018-04-24T00:09:34.912Z,57.6
2018-04-24T00:10:24.421Z,57.6
2018-04-24T00:11:15.042Z,57.6
2018-04-24T00:12:05.157Z,57.6
2018-04-24T00:12:54.882Z,57.6
2018-04-24T00:13:45.249Z,57.5
2018-04-24T00:14:35.003Z,57.6
2018-04-24T00:15:25.351Z,57.5
2018-04-24T00:16:15.139Z,57.5
2018-04-24T00:17:05.475Z,57.5
2018-04-24T00:17:55.550Z,57.5
2018-04-24T00:18:45.615Z,57.5
2018-04-24T00:19:35.690Z,57.5
2018-04-24T00:20:25.745Z,57.4
2018-04-24T00:21:15.811Z,57.4
2018-04-24T00:22:05.594Z,57.4
2018-04-24T00:22:55.379Z,57.4
2018-04-24T00:23:45.729Z,57.4
2018-04-24T00:24:35.510Z,57.4
2018-04-24T00:25:26.150Z,57.4
2018-04-24T00:26:16.190Z,57.4
2018-04-24T00:27:05.972Z,57.4
2018-04-24T00:27:56.388Z,57.4
2018-04-24T00:28:46.384Z,57.4
2018-04-24T00:29:36.448Z,57.4
2018-04-24T00:30:26.503Z,57.4
2018-04-24T00:31:16.575Z,57.3
2018-04-24T00:32:06.661Z,57.3
2018-04-24T00:32:56.712Z,57.3
2018-04-24T00:33:46.764Z,57.3
2018-04-24T00:34:36.552Z,57.3
2018-04-24T00:35:26.901Z,57.3
2018-04-24T00:36:16.105Z,57.3
2018-04-24T00:37:06.772Z,57.3
2018-04-24T00:37:56.813Z,57.3
2018-04-24T00:38:46.598Z,57.3
2018-04-24T00:39:37.250Z,57.3
2018-04-24T00:40:27.292Z,57.3
2018-04-24T00:41:16.788Z,57.3
2018-04-24T00:42:07.421Z,57.3
2018-04-24T00:42:57.470Z,57.2
2018-04-24T00:43:47.528Z,57.2
2018-04-24T00:44:37.661Z,57.2
2018-04-24T00:45:27.671Z,57.2
2018-04-24T00:46:17.429Z,57.2
2018-04-24T00:47:07.790Z,57.2
2018-04-24T00:47:57.857Z,57.2
2018-04-24T00:48:47.904Z,57.1
2018-04-24T00:49:37.983Z,57.1
2018-04-24T00:50:27.465Z,57.1
2018-04-24T00:51:18.134Z,57.1
2018-04-24T00:52:08.181Z,57.1
2018-04-24T00:52:58.244Z,57.1
2018-04-24T00:53:48.309Z,57.1
2018-04-24T00:54:37.793Z,57.1
2018-04-24T00:55:27.872Z,57.1
2018-04-24T00:56:18.486Z,57.1
2018-04-24T00:57:08.551Z,57.1
2018-04-24T00:57:58.351Z,57.1
2018-04-24T00:58:48.426Z,57.1
2018-04-24T00:59:38.481Z,57
2018-04-24T01:00:28.623Z,57
2018-04-24T01:01:18.616Z,57
2018-04-24T01:02:08.944Z,57
2018-04-24T01:02:58.432Z,57
2018-04-24T01:03:48.779Z,56.9
2018-04-24T01:04:38.858Z,57
2018-04-24T01:05:28.919Z,56.9
2018-04-24T01:06:18.986Z,56.9
2018-04-24T01:07:09.031Z,56.9
2018-04-24T01:07:59.110Z,56.9
2018-04-24T01:08:49.449Z,56.9
2018-04-24T01:09:39.533Z,56.9
2018-04-24T01:10:29.294Z,56.9
2018-04-24T01:11:19.623Z,56.9
2018-04-24T01:12:09.417Z,56.9
2018-04-24T01:12:59.846Z,56.9
2018-04-24T01:13:49.838Z,56.9
2018-04-24T01:14:39.392Z,56.9
2018-04-24T01:15:29.963Z,56.8
2018-04-24T01:16:20.020Z,56.8
2018-04-24T01:17:09.803Z,56.8
2018-04-24T01:18:00.138Z,56.8
2018-04-24T01:18:50.194Z,56.8
2018-04-24T01:19:39.996Z,56.8
2018-04-24T01:20:30.076Z,56.8
2018-04-24T01:21:20.411Z,56.8
2018-04-24T01:22:10.466Z,56.8
2018-04-24T01:23:00.250Z,56.8
2018-04-24T01:23:50.331Z,56.8
2018-04-24T01:24:40.384Z,56.8
2018-04-24T01:25:30.733Z,56.8
2018-04-24T01:26:20.215Z,56.8
2018-04-24T01:27:10.591Z,56.8
2018-04-24T01:28:00.915Z,56.7
2018-04-24T01:28:50.973Z,56.7
2018-04-24T01:29:41.035Z,56.7
2018-04-24T01:30:31.113Z,56.7
2018-04-24T01:31:20.393Z,56.7
2018-04-24T01:32:10.755Z,56.7
2018-04-24T01:33:00.797Z,56.7
2018-04-24T01:33:50.599Z,56.7
2018-04-24T01:34:40.679Z,56.6
2018-04-24T01:35:30.732Z,56.6
2018-04-24T01:36:21.060Z,56.6
2018-04-24T01:37:11.139Z,56.6
2018-04-24T01:38:01.209Z,56.6
2018-04-24T01:38:51.004Z,56.6
2018-04-24T01:39:41.883Z,56.6
2018-04-24T01:40:31.881Z,56.6
2018-04-24T01:41:21.650Z,56.6
2018-04-24T01:42:11.990Z,56.6
2018-04-24T01:43:01.766Z,56.5
2018-04-24T01:43:51.289Z,56.5
2018-04-24T01:44:42.169Z,56.5
2018-04-24T01:45:31.973Z,56.5
2018-04-24T01:46:22.341Z,56.5
2018-04-24T01:47:12.384Z,56.5
2018-04-24T01:48:02.440Z,56.5
2018-04-24T01:48:52.511Z,56.5
2018-04-24T01:49:42.328Z,56.5
2018-04-24T01:50:32.648Z,56.5
2018-04-24T01:51:22.441Z,56.4
2018-04-24T01:52:12.544Z,56.4
2018-04-24T01:53:02.839Z,56.4
2018-04-24T01:53:52.894Z,56.4
2018-04-24T01:54:42.967Z,56.4
2018-04-24T01:55:33.001Z,56.4
2018-04-24T01:56:22.813Z,56.4
2018-04-24T01:57:13.152Z,56.4
2018-04-24T01:58:03.220Z,56.4
2018-04-24T01:58:53.264Z,56.4
2018-04-24T01:59:43.411Z,56.4
2018-04-24T02:00:33.388Z,56.4
2018-04-24T02:01:23.176Z,56.4
2018-04-24T02:02:13.268Z,56.3
2018-04-24T02:03:03.585Z,56.3
2018-04-24T02:03:53.395Z,56.3
2018-04-24T02:04:43.435Z,56.3
2018-04-24T02:05:33.513Z,56.3
2018-04-24T02:06:23.839Z,56.3
2018-04-24T02:07:13.624Z,56.3
2018-04-24T02:08:03.961Z,56.3
2018-04-24T02:08:54.004Z,56.3
2018-04-24T02:09:43.872Z,56.3
2018-04-24T02:10:33.872Z,56.3
2018-04-24T02:11:24.207Z,56.3
2018-04-24T02:12:13.993Z,56.3
2018-04-24T02:13:04.344Z,56.3
2018-04-24T02:13:54.400Z,56.2
2018-04-24T02:14:44.471Z,56.2
2018-04-24T02:15:34.248Z,56.2
2018-04-24T02:16:24.592Z,56.2
2018-04-24T02:17:14.656Z,56.2
2018-04-24T02:18:04.723Z,56.2
2018-04-24T02:18:54.788Z,56.1
2018-04-24T02:19:44.868Z,56.1
2018-04-24T02:20:34.923Z,56.2
2018-04-24T02:21:24.709Z,56.1
2018-04-24T02:22:14.784Z,56.1
2018-04-24T02:23:04.854Z,56.1
2018-04-24T02:23:54.891Z,56.1
2018-04-24T02:24:44.973Z,56.1
2018-04-24T02:25:35.322Z,56.1
2018-04-24T02:26:25.373Z,56.1
2018-04-24T02:27:14.869Z,56.1
2018-04-24T02:28:05.206Z,56.1
2018-04-24T02:28:55.371Z,56.1
2018-04-24T02:29:45.622Z,56.1
2018-04-24T02:30:35.737Z,56
2018-04-24T02:31:25.744Z,56
2018-04-24T02:32:15.839Z,56
2018-04-24T02:33:05.609Z,56
2018-04-24T02:33:55.942Z,56
2018-04-24T02:34:45.432Z,56
2018-04-24T02:35:36.161Z,56
2018-04-24T02:36:26.131Z,56
2018-04-24T02:37:15.620Z,56
2018-04-24T02:38:06.277Z,55.9
2018-04-24T02:38:56.308Z,55.9
2018-04-24T02:39:46.379Z,55.9
2018-04-24T02:40:36.453Z,55.9
2018-04-24T02:41:26.530Z,55.9
2018-04-24T02:42:16.289Z,55.9
2018-04-24T02:43:06.644Z,55.9
2018-04-24T02:43:56.721Z,55.9
2018-04-24T02:44:46.751Z,55.9
2018-04-24T02:45:36.571Z,55.9
2018-04-24T02:46:26.912Z,55.9
2018-04-24T02:47:16.943Z,55.9
2018-04-24T02:48:06.260Z,55.9
2018-04-24T02:48:56.611Z,55.9
2018-04-24T02:49:46.667Z,55.8
2018-04-24T02:50:36.443Z,55.8
2018-04-24T02:51:26.791Z,55.8
2018-04-24T02:52:16.862Z,55.8
2018-04-24T02:53:07.426Z,55.8
2018-04-24T02:53:57.460Z,55.8
2018-04-24T02:54:47.515Z,55.8
2018-04-24T02:55:37.606Z,55.8
2018-04-24T02:56:27.669Z,55.8
2018-04-24T02:57:17.811Z,55.8
2018-04-24T02:58:07.791Z,55.8
2018-04-24T02:58:57.846Z,55.8
2018-04-24T02:59:47.908Z,55.8
2018-04-24T03:00:37.976Z,55.8
2018-04-24T03:01:28.030Z,55.8
2018-04-24T03:02:18.122Z,55.7
2018-04-24T03:03:08.181Z,55.7
2018-04-24T03:03:58.246Z,55.7
2018-04-24T03:04:48.031Z,55.7
2018-04-24T03:05:38.074Z,55.7
2018-04-24T03:06:28.424Z,55.7
2018-04-24T03:07:18.481Z,55.6
2018-04-24T03:08:08.276Z,55.6
2018-04-24T03:08:58.623Z,55.6
2018-04-24T03:09:48.658Z,55.6
2018-04-24T03:10:38.740Z,55.6
2018-04-24T03:11:28.542Z,55.6
2018-04-24T03:12:18.860Z,55.6
2018-04-24T03:13:08.942Z,55.6
2018-04-24T03:13:58.991Z,55.6
2018-04-24T03:14:48.765Z,55.6
2018-04-24T03:15:39.125Z,55.6
2018-04-24T03:16:29.199Z,55.6
2018-04-24T03:17:19.231Z,55.6
2018-04-24T03:18:09.305Z,55.6
2018-04-24T03:18:59.087Z,55.5
2018-04-24T03:19:49.164Z,55.5
2018-04-24T03:20:39.539Z,55.5
2018-04-24T03:21:29.581Z,55.5
2018-04-24T03:22:19.633Z,55.5
2018-04-24T03:23:09.685Z,55.5
2018-04-24T03:23:59.189Z,55.5
2018-04-24T03:24:49.826Z,55.5
2018-04-24T03:25:39.635Z,55.5
2018-04-24T03:26:29.935Z,55.4
2018-04-24T03:27:20.034Z,55.4
2018-04-24T03:28:09.795Z,55.4
2018-04-24T03:28:59.866Z,55.4
2018-04-24T03:29:50.195Z,55.4
2018-04-24T03:30:40.311Z,55.4
2018-04-24T03:31:29.772Z,55.4
2018-04-24T03:32:20.387Z,55.4
2018-04-24T03:33:10.509Z,55.4
2018-04-24T03:34:00.522Z,55.4
2018-04-24T03:34:50.298Z,55.4
2018-04-24T03:35:39.812Z,55.4
2018-04-24T03:36:30.432Z,55.3
2018-04-24T03:37:20.492Z,55.3
2018-04-24T03:38:10.837Z,55.3
2018-04-24T03:39:00.895Z,55.3
2018-04-24T03:39:50.969Z,55.3
2018-04-24T03:40:41.026Z,55.3
2018-04-24T03:41:30.523Z,55.3
2018-04-24T03:42:20.853Z,55.3
2018-04-24T03:43:10.931Z,55.3
2018-04-24T03:44:01.292Z,55.3
2018-04-24T03:44:51.048Z,55.3
2018-04-24T03:45:41.404Z,55.3
2018-04-24T03:46:31.461Z,55.3
2018-04-24T03:47:21.614Z,55.3
2018-04-24T03:48:11.590Z,55.3
2018-04-24T03:49:01.652Z,55.3
2018-04-24T03:49:51.704Z,55.2
2018-04-24T03:50:41.498Z,55.2
2018-04-24T03:51:31.845Z,55.2
2018-04-24T03:52:21.917Z,55.2
2018-04-24T03:53:11.973Z,55.2
2018-04-24T03:54:02.038Z,55.1
2018-04-24T03:54:52.086Z,55.2
2018-04-24T03:55:41.883Z,55.1
2018-04-24T03:56:32.231Z,55.1
2018-04-24T03:57:22.594Z,55.1
2018-04-24T03:58:12.361Z,55.1
2018-04-24T03:59:02.445Z,55.1
2018-04-24T03:59:52.485Z,55.1
2018-04-24T04:00:42.557Z,55.1
2018-04-24T04:01:32.344Z,55.1
2018-04-24T04:02:22.390Z,55.1
2018-04-24T04:03:12.475Z,55.1
2018-04-24T04:04:02.539Z,55.1
2018-04-24T04:04:52.865Z,55.1
2018-04-24T04:05:42.441Z,55.1
2018-04-24T04:06:32.716Z,55.1
2018-04-24T04:07:22.756Z,55.1
2018-04-24T04:08:12.824Z,55
2018-04-24T04:09:03.236Z,55
2018-04-24T04:09:53.252Z,55
2018-04-24T04:10:43.320Z,55
2018-04-24T04:11:33.380Z,55
2018-04-24T04:12:23.445Z,55
2018-04-24T04:13:12.948Z,54.9
2018-04-24T04:14:03.588Z,54.9
2018-04-24T04:14:53.623Z,54.9
2018-04-24T04:15:43.707Z,54.9
2018-04-24T04:16:33.823Z,54.9
2018-04-24T04:17:23.830Z,54.9
2018-04-24T04:18:13.598Z,54.9
2018-04-24T04:19:03.997Z,54.9
2018-04-24T04:19:53.748Z,54.9
2018-04-24T04:20:44.138Z,54.9
2018-04-24T04:21:33.849Z,54.9
2018-04-24T04:22:23.964Z,54.9
2018-04-24T04:23:14.263Z,54.9
2018-04-24T04:24:04.043Z,54.9
2018-04-24T04:24:54.116Z,54.9
2018-04-24T04:25:44.507Z,54.8
2018-04-24T04:26:34.253Z,54.9
2018-04-24T04:27:24.006Z,54.9
2018-04-24T04:28:14.373Z,54.8
2018-04-24T04:29:04.715Z,54.8
2018-04-24T04:29:54.755Z,54.8
2018-04-24T04:30:44.857Z,54.8
2018-04-24T04:31:34.609Z,54.8
2018-04-24T04:32:25.033Z,54.8
2018-04-24T04:33:15.010Z,54.8
2018-04-24T04:34:04.809Z,54.8
2018-04-24T04:34:55.140Z,54.8
2018-04-24T04:35:45.216Z,54.8
2018-04-24T04:36:34.988Z,54.8
2018-04-24T04:37:25.347Z,54.7
2018-04-24T04:38:15.478Z,54.8
2018-04-24T04:39:05.180Z,54.8
2018-04-24T04:39:55.523Z,54.7
2018-04-24T04:40:45.013Z,54.7
2018-04-24T04:41:35.917Z,54.7
2018-04-24T04:42:25.710Z,54.7
2018-04-24T04:43:15.493Z,54.7
2018-04-24T04:44:05.899Z,54.7
2018-04-24T04:44:55.654Z,54.6
2018-04-24T04:45:45.720Z,54.6
2018-04-24T04:46:36.037Z,54.6
2018-04-24T04:47:25.818Z,54.6
2018-04-24T04:48:15.884Z,54.6
2018-04-24T04:49:06.001Z,54.6
2018-04-24T04:49:56.289Z,54.6
2018-04-24T04:50:46.350Z,54.6
2018-04-24T04:51:36.418Z,54.6
2018-04-24T04:52:26.182Z,54.6
2018-04-24T04:53:16.552Z,54.6
2018-04-24T04:54:06.608Z,54.6
2018-04-24T04:54:56.667Z,54.6
2018-04-24T04:55:46.455Z,54.6
2018-04-24T04:56:36.792Z,54.5
2018-04-24T04:57:26.277Z,54.5
2018-04-24T04:58:16.907Z,54.5
2018-04-24T04:59:06.993Z,54.6
2018-04-24T04:59:57.045Z,54.5
2018-04-24T05:00:46.529Z,54.5
2018-04-24T05:01:36.886Z,54.5
2018-04-24T05:02:27.253Z,54.4
2018-04-24T05:03:16.721Z,54.5
2018-04-24T05:04:07.347Z,54.4
2018-04-24T05:04:56.866Z,54.5
2018-04-24T05:05:47.502Z,54.4
2018-04-24T05:06:37.561Z,54.4
2018-04-24T05:07:27.600Z,54.4
2018-04-24T05:08:17.676Z,54.4
2018-04-24T05:09:07.745Z,54.4
2018-04-24T05:09:57.795Z,54.4
2018-04-24T05:10:47.612Z,54.4
2018-04-24T05:11:37.937Z,54.4
2018-04-24T05:12:27.980Z,54.4
2018-04-24T05:13:17.514Z,54.4
2018-04-24T05:14:08.102Z,54.4
2018-04-24T05:14:57.890Z,54.4
2018-04-24T05:15:47.961Z,54.4
2018-04-24T05:16:38.012Z,54.4
2018-04-24T05:17:28.088Z,54.3
2018-04-24T05:18:18.418Z,54.3
2018-04-24T05:19:08.510Z,54.3
2018-04-24T05:19:58.578Z,54.3
2018-04-24T05:20:48.620Z,54.3
2018-04-24T05:21:38.695Z,54.3
2018-04-24T05:22:28.489Z,54.3
2018-04-24T05:23:18.886Z,54.3
2018-04-24T05:24:08.866Z,54.3
2018-04-24T05:24:58.927Z,54.3
2018-04-24T05:25:49.071Z,54.3
2018-04-24T05:26:39.597Z,54.3
2018-04-24T05:27:29.156Z,54.3
2018-04-24T05:28:19.204Z,54.3
2018-04-24T05:29:09.003Z,54.3
2018-04-24T05:29:59.107Z,54.2
2018-04-24T05:30:49.417Z,54.2
2018-04-24T05:31:39.472Z,54.2
2018-04-24T05:32:29.509Z,54.2
2018-04-24T05:33:19.292Z,54.2
2018-04-24T05:34:09.646Z,54.2
2018-04-24T05:34:59.689Z,54.1
2018-04-24T05:35:49.745Z,54.1
2018-04-24T05:36:39.545Z,54.1
2018-04-24T05:37:29.902Z,54.1
2018-04-24T05:38:19.969Z,54.1
2018-04-24T05:39:10.053Z,54.1
2018-04-24T05:39:59.826Z,54.1
2018-04-24T05:40:50.143Z,54.1
2018-04-24T05:41:40.205Z,54.1
2018-04-24T05:42:30.001Z,54.1
2018-04-24T05:43:20.323Z,54.1
2018-04-24T05:44:10.382Z,54.1
2018-04-24T05:45:00.176Z,54.1
2018-04-24T05:45:50.563Z,54.1
2018-04-24T05:46:40.592Z,54.1
2018-04-24T05:47:30.370Z,54
2018-04-24T05:48:20.729Z,54
2018-04-24T05:49:10.772Z,54
2018-04-24T05:50:00.823Z,54
2018-04-24T05:50:50.897Z,54
2018-04-24T05:51:40.698Z,54
2018-04-24T05:52:30.754Z,53.9
2018-04-24T05:53:21.085Z,54
2018-04-24T05:54:11.175Z,54
2018-04-24T05:55:01.214Z,53.9
2018-04-24T05:55:51.271Z,53.9
2018-04-24T05:56:41.155Z,53.9
2018-04-24T05:57:31.137Z,53.9
2018-04-24T05:58:21.455Z,53.9
2018-04-24T05:59:11.243Z,53.9
2018-04-24T06:00:01.300Z,53.9
2018-04-24T06:00:51.676Z,53.9
2018-04-24T06:01:41.712Z,53.9
2018-04-24T06:02:31.790Z,53.9
2018-04-24T06:03:21.579Z,53.9
2018-04-24T06:04:11.622Z,53.9
2018-04-24T06:05:01.968Z,53.9
2018-04-24T06:05:52.043Z,53.9
2018-04-24T06:06:42.109Z,53.8
2018-04-24T06:07:32.226Z,53.9
2018-04-24T06:08:22.140Z,53.9
2018-04-24T06:09:12.309Z,53.8
2018-04-24T06:10:02.387Z,53.8
2018-04-24T06:10:52.142Z,53.8
2018-04-24T06:11:42.483Z,53.8
2018-04-24T06:12:32.585Z,53.8
2018-04-24T06:13:22.641Z,53.8
2018-04-24T06:14:12.403Z,53.8
2018-04-24T06:15:03.054Z,53.8
2018-04-24T06:15:52.778Z,53.8
2018-04-24T06:16:42.566Z,53.8
2018-04-24T06:17:32.376Z,53.8
2018-04-24T06:18:23.001Z,53.8
2018-04-24T06:19:12.209Z,53.8
2018-04-24T06:20:03.130Z,53.8
2018-04-24T06:20:52.629Z,53.8
2018-04-24T06:21:43.251Z,53.7
2018-04-24T06:22:33.546Z,53.7
2018-04-24T06:23:23.381Z,53.7
2018-04-24T06:24:13.159Z,53.7
2018-04-24T06:25:03.517Z,53.7
2018-04-24T06:25:53.278Z,53.7
2018-04-24T06:26:43.381Z,53.6
2018-04-24T06:27:33.666Z,53.6
2018-04-24T06:28:24.160Z,53.6
2018-04-24T06:29:13.827Z,53.6
2018-04-24T06:30:03.914Z,53.6
2018-04-24T06:30:53.450Z,53.6
2018-04-24T06:31:43.723Z,53.6
2018-04-24T06:32:34.065Z,53.6
2018-04-24T06:33:23.875Z,53.6
2018-04-24T06:34:13.911Z,53.6
2018-04-24T06:35:04.262Z,53.6
2018-04-24T06:35:54.316Z,53.6
2018-04-24T06:36:44.185Z,53.6
2018-04-24T06:37:36.115Z,53.6
2018-04-24T06:38:26.419Z,53.6
2018-04-24T06:39:16.454Z,53.4
2018-04-24T06:40:05.959Z,53.3
2018-04-24T06:40:56.334Z,53.1
2018-04-24T06:41:46.387Z,52.9
2018-04-24T06:42:36.465Z,52.8
2018-04-24T06:43:26.774Z,52.8
2018-04-24T06:44:16.860Z,52.7
2018-04-24T06:45:06.387Z,52.7
2018-04-24T06:45:56.706Z,52.6
2018-04-24T06:46:46.778Z,52.6
2018-04-24T06:47:36.565Z,52.6
2018-04-24T06:48:27.004Z,52.6
2018-04-24T06:49:16.947Z,52.6
2018-04-24T06:50:06.771Z,52.6
2018-04-24T06:50:57.361Z,52.6
2018-04-24T06:51:46.622Z,52.6
2018-04-24T06:52:37.554Z,52.6
2018-04-24T06:53:27.074Z,52.6
2018-04-24T06:54:17.349Z,52.6
2018-04-24T06:55:07.117Z,52.6
2018-04-24T06:55:57.502Z,52.5
2018-04-24T06:56:46.990Z,52.5
2018-04-24T06:57:37.099Z,52.5
2018-04-24T06:58:27.974Z,52.4
2018-04-24T07:02:37.990Z,52.3
2018-04-24T07:03:28.411Z,52.3
2018-04-24T07:04:18.149Z,52.3
2018-04-24T07:05:08.446Z,52.3
2018-04-24T07:05:58.533Z,52.3
2018-04-24T07:06:48.148Z,52.3
2018-04-24T07:07:38.144Z,52.3
2018-04-24T07:08:28.428Z,52.2
2018-04-24T07:09:18.780Z,52.2
2018-04-24T07:10:08.858Z,52.2
2018-04-24T07:10:58.136Z,52.2
2018-04-24T07:11:48.709Z,52.2
2018-04-24T07:12:38.553Z,52.2
2018-04-24T07:13:29.116Z,52.2
2018-04-24T07:14:19.191Z,52.2
2018-04-24T07:15:09.230Z,52.3
2018-04-24T07:15:58.740Z,52.3
2018-04-24T07:16:48.610Z,52.3
2018-04-24T07:17:39.149Z,52.3
2018-04-24T07:18:29.543Z,52.3
2018-04-24T07:19:18.999Z,52.3
2018-04-24T07:20:09.350Z,52.3
2018-04-24T07:20:59.720Z,52.3
2018-04-24T07:21:48.915Z,52.2
2018-04-24T07:22:39.834Z,52.2
2018-04-24T07:23:29.627Z,52.2
2018-04-24T07:24:19.681Z,52.3
2018-04-24T07:25:09.167Z,52.3
2018-04-24T07:26:00.095Z,52.3
2018-04-24T07:26:49.927Z,52.3
2018-04-24T07:28:30.022Z,52.4
2018-04-24T07:29:20.051Z,52.5
2018-04-24T07:30:10.434Z,52.5
2018-04-24T07:31:00.210Z,52.6
2018-04-24T07:31:50.587Z,52.6
2018-04-24T07:32:40.337Z,52.6
2018-04-24T07:33:29.809Z,52.6
2018-04-24T07:34:20.726Z,52.7
2018-04-24T07:35:10.240Z,52.7
2018-04-24T07:36:00.579Z,52.8
2018-04-24T07:36:50.650Z,52.8
2018-04-24T07:37:41.052Z,52.8
2018-04-24T07:38:31.187Z,52.9
2018-04-24T07:39:20.879Z,52.9
2018-04-24T07:40:10.875Z,53
2018-04-24T07:41:01.289Z,53
2018-04-24T07:41:50.760Z,53.1
2018-04-24T07:42:41.394Z,53.1
2018-04-24T07:43:31.174Z,53.1
2018-04-24T07:44:21.518Z,53.2
2018-04-24T07:45:11.279Z,53.3
2018-04-24T07:46:01.387Z,53.3
2018-04-24T07:46:52.205Z,53.3
2018-04-24T07:47:41.496Z,53.4
2018-04-24T07:48:31.071Z,53.4
2018-04-24T07:49:21.886Z,53.4
2018-04-24T07:50:11.707Z,53.5
2018-04-24T07:51:01.776Z,53.6
2018-04-24T07:51:52.085Z,53.6
2018-04-24T07:52:42.147Z,53.7
2018-04-24T07:53:32.210Z,53.8
2018-04-24T07:54:21.733Z,53.8
2018-04-24T07:55:12.096Z,53.9
2018-04-24T07:56:01.949Z,53.9
2018-04-24T07:56:52.223Z,53.9
2018-04-24T07:57:42.083Z,54
2018-04-24T07:58:32.693Z,54.1
2018-04-24T07:59:22.729Z,54.1
2018-04-24T08:00:12.753Z,54.2
2018-04-24T08:01:02.823Z,54.3
2018-04-24T08:01:52.901Z,54.3
2018-04-24T08:02:42.482Z,54.4
2018-04-24T08:03:32.555Z,54.4
2018-04-24T08:04:22.533Z,54.5
2018-04-24T08:05:12.581Z,54.6
2018-04-24T08:06:03.240Z,54.6
2018-04-24T08:06:52.987Z,54.7
2018-04-24T08:07:43.439Z,54.8
2018-04-24T08:08:33.140Z,54.8
2018-04-24T08:09:23.478Z,54.9
2018-04-24T08:10:12.958Z,54.9
2018-04-24T08:11:03.065Z,55
2018-04-24T08:11:52.831Z,55.1
2018-04-24T08:12:43.710Z,55.1
2018-04-24T08:13:33.528Z,55.2
2018-04-24T08:14:23.847Z,55.3
2018-04-24T08:15:13.357Z,55.3
2018-04-24T08:16:03.424Z,55.4
2018-04-24T08:16:53.752Z,55.4
2018-04-24T08:17:43.857Z,55.5
2018-04-24T08:18:34.191Z,55.6
2018-04-24T08:19:24.226Z,55.6
2018-04-24T08:20:14.376Z,55.7
2018-04-24T08:21:04.383Z,55.8
2018-04-24T08:21:54.178Z,55.8
2018-04-24T08:22:44.383Z,55.9
2018-04-24T08:23:34.265Z,56
2018-04-24T08:24:24.083Z,56
2018-04-24T08:25:14.444Z,56.1
2018-04-24T08:26:04.195Z,56.1
2018-04-24T08:26:54.577Z,56.2
2018-04-24T08:27:44.940Z,56.3
2018-04-24T08:28:34.486Z,56.3
2018-04-24T08:29:24.739Z,56.4
2018-04-24T08:30:14.818Z,56.4
2018-04-24T08:31:04.940Z,56.5
2018-04-24T08:31:55.217Z,56.6
2018-04-24T08:32:45.009Z,56.6
2018-04-24T08:33:34.912Z,56.7
2018-04-24T08:34:25.216Z,56.8
2018-04-24T08:35:15.529Z,56.8
2018-04-24T08:36:05.628Z,56.9
2018-04-24T08:36:55.623Z,56.9
2018-04-24T08:37:45.709Z,57
2018-04-24T08:38:35.192Z,57.1
2018-04-24T08:39:25.564Z,57.1
2018-04-24T08:40:15.312Z,57.2
2018-04-24T08:41:05.936Z,57.3
2018-04-24T08:41:56.229Z,57.3
2018-04-24T08:42:46.081Z,57.4
2018-04-24T08:43:35.934Z,57.4
2018-04-24T08:44:26.020Z,57.5
2018-04-24T08:45:16.298Z,57.6
2018-04-24T08:46:06.361Z,57.6
2018-04-24T08:46:56.388Z,57.7
2018-04-24T08:47:46.474Z,57.7
2018-04-24T08:49:26.686Z,57.9
2018-04-24T08:50:16.377Z,57.9
2018-04-24T08:51:06.730Z,57.9
2018-04-24T08:51:56.516Z,58
2018-04-24T08:52:46.871Z,58.1
2018-04-24T08:53:36.916Z,58.1
2018-04-24T08:54:27.013Z,58.2
2018-04-24T08:55:17.147Z,58.3
2018-04-24T08:56:06.862Z,58.3
2018-04-24T08:56:57.174Z,58.3
2018-04-24T08:57:46.967Z,58.4
2018-04-24T08:58:37.311Z,58.4
2018-04-24T08:59:27.414Z,58.5
2018-04-24T09:01:07.232Z,58.6
2018-04-24T09:01:57.720Z,58.7
2018-04-24T09:02:47.086Z,58.8
2018-04-24T09:03:37.435Z,58.8
2018-04-24T09:04:27.498Z,58.9
2018-04-24T09:05:17.547Z,58.9
2018-04-24T09:06:07.996Z,59
2018-04-24T09:06:57.701Z,59.1
2018-04-24T09:07:47.761Z,59.1
2018-04-24T09:08:38.637Z,59.2
2018-04-24T09:09:28.158Z,59.3
2018-04-24T09:10:18.230Z,59.3
2018-04-24T09:11:08.341Z,59.3
2018-04-24T09:11:58.372Z,59.4
2018-04-24T09:12:48.517Z,59.4
2018-04-24T09:13:37.958Z,59.5
2018-04-24T09:14:28.017Z,59.6
2018-04-24T09:15:18.617Z,59.6
2018-04-24T09:16:08.410Z,59.7
2018-04-24T09:16:58.761Z,59.8
2018-04-24T09:17:48.545Z,59.8
2018-04-24T09:18:38.378Z,59.9
2018-04-24T09:19:29.103Z,59.9
2018-04-24T09:20:18.463Z,60
2018-04-24T09:21:08.825Z,60.1
2018-04-24T09:21:58.618Z,60.1
2018-04-24T09:22:48.951Z,60.1
2018-04-24T09:23:39.069Z,60.2
2018-04-24T09:24:28.486Z,60.3
2018-04-24T09:25:19.150Z,60.3
2018-04-24T09:26:09.498Z,60.4
2018-04-24T09:27:00.264Z,60.4
2018-04-24T09:27:49.628Z,60.5
2018-04-24T09:28:39.421Z,60.6
2018-04-24T09:29:29.782Z,60.6
2018-04-24T09:30:19.557Z,60.7
2018-04-24T09:31:09.323Z,60.8
2018-04-24T09:31:59.678Z,60.8
2018-04-24T09:32:49.726Z,60.9
2018-04-24T09:33:41.537Z,60.9
2018-04-24T09:34:30.141Z,61
2018-04-24T09:35:19.725Z,61.1
2018-04-24T09:36:10.297Z,61.1
2018-04-24T09:37:00.329Z,61.2
2018-04-24T09:37:50.413Z,61.3
2018-04-24T09:38:40.268Z,61.3
2018-04-24T09:39:30.550Z,61.4
2018-04-24T09:40:20.296Z,61.4
2018-04-24T09:41:10.089Z,61.5
2018-04-24T09:42:00.469Z,61.5
2018-04-24T09:42:50.604Z,61.6
2018-04-24T09:43:40.595Z,61.6
2018-04-24T09:44:30.664Z,61.7
2018-04-24T09:45:20.719Z,61.8
2018-04-24T09:46:10.591Z,61.8
2018-04-24T09:47:00.837Z,61.9
2018-04-24T09:47:50.940Z,61.9
2018-04-24T09:48:41.259Z,62
2018-04-24T09:49:31.130Z,62.1
2018-04-24T09:50:21.125Z,62.1
2018-04-24T09:51:10.624Z,62.2
2018-04-24T09:52:01.531Z,62.3
2018-04-24T09:52:51.307Z,62.3
2018-04-24T09:53:40.521Z,62.4
2018-04-24T09:54:30.593Z,62.4
2018-04-24T09:55:21.806Z,62.5
2018-04-24T09:56:11.552Z,62.6
2018-04-24T09:57:01.909Z,62.6
2018-04-24T09:57:51.983Z,62.7
2018-04-24T09:58:56.414Z,62.8
2018-04-24T09:59:31.899Z,62.8
2018-04-24T10:00:22.203Z,62.8
2018-04-24T10:01:12.253Z,62.9
2018-04-24T10:02:02.298Z,62.9
2018-04-24T10:02:52.359Z,63
2018-04-24T10:03:42.137Z,63.1
2018-04-24T10:04:32.527Z,63.1
2018-04-24T10:05:22.305Z,63.2
2018-04-24T10:06:12.090Z,63.3
2018-04-24T10:07:02.412Z,63.3
2018-04-24T10:07:53.579Z,63.4
2018-04-24T10:08:42.269Z,63.4
2018-04-24T10:09:32.622Z,63.5
2018-04-24T10:10:22.673Z,63.6
2018-04-24T10:11:12.483Z,63.6
2018-04-24T10:12:01.974Z,63.6
2018-04-24T10:12:52.908Z,63.7
2018-04-24T10:13:43.906Z,63.8
2018-04-24T10:14:33.298Z,63.8
2018-04-24T10:15:23.357Z,63.9
2018-04-24T10:16:13.407Z,63.9
2018-04-24T10:17:03.507Z,64
2018-04-24T10:17:52.995Z,64.1
2018-04-24T10:18:43.595Z,64.1
2018-04-24T10:19:33.447Z,64.1
2018-04-24T10:20:23.482Z,64.3
2018-04-24T10:21:13.535Z,64.3
2018-04-24T10:22:03.892Z,64.4
2018-04-24T10:22:53.657Z,64.4
2018-04-24T10:23:44.014Z,64.4
2018-04-24T10:24:34.075Z,64.5
2018-04-24T10:25:23.869Z,64.6
2018-04-24T10:26:13.946Z,64.6
2018-04-24T10:27:04.012Z,64.7
2018-04-24T10:27:53.801Z,64.8
2018-04-24T10:28:44.146Z,64.8
2018-04-24T10:29:33.953Z,64.9
2018-04-24T10:30:24.268Z,64.9
2018-04-24T10:31:14.606Z,64.9
2018-04-24T10:32:04.703Z,65.1
2018-04-24T10:32:54.806Z,65.1
2018-04-24T10:33:44.539Z,65.1
2018-04-24T10:34:33.773Z,65.2
2018-04-24T10:35:24.679Z,65.3
2018-04-24T10:36:14.146Z,65.3
2018-04-24T10:37:05.081Z,65.4
2018-04-24T10:37:54.869Z,65.4
2018-04-24T10:38:44.633Z,65.4
2018-04-24T10:39:34.450Z,65.5
2018-04-24T10:40:24.487Z,65.6
2018-04-24T10:41:15.414Z,65.6
2018-04-24T10:42:05.574Z,65.7
2018-04-24T10:42:54.998Z,65.8
2018-04-24T10:43:45.765Z,65.8
2018-04-24T10:44:35.383Z,65.8
2018-04-24T10:45:25.430Z,65.9
2018-04-24T10:46:15.825Z,65.9
2018-04-24T10:47:05.608Z,66
2018-04-24T10:47:55.670Z,66.1
2018-04-24T10:48:45.726Z,66.1
2018-04-24T10:49:35.807Z,66.1
2018-04-24T10:50:25.410Z,66.2
2018-04-24T10:51:15.351Z,66.3
2018-04-24T10:52:05.980Z,66.3
2018-04-24T10:52:56.335Z,66.4
2018-04-24T10:53:45.841Z,66.4
2018-04-24T10:54:36.203Z,66.4
2018-04-24T10:55:26.551Z,66.5
2018-04-24T10:56:16.319Z,66.6
2018-04-24T10:57:06.364Z,66.6
2018-04-24T10:57:56.476Z,66.7
2018-04-24T10:58:46.851Z,66.8
2018-04-24T10:59:36.564Z,66.8
2018-04-24T11:00:26.624Z,66.8
2018-04-24T11:01:16.982Z,66.9
2018-04-24T11:02:07.067Z,66.9
2018-04-24T11:02:57.102Z,66.9
2018-04-24T11:03:47.163Z,67
2018-04-24T11:04:36.388Z,67.1
2018-04-24T11:05:27.296Z,67.1
2018-04-24T11:06:17.380Z,67.2
2018-04-24T11:07:07.456Z,67.3
2018-04-24T11:07:57.506Z,67.3
2018-04-24T11:08:47.307Z,67.3
2018-04-24T11:09:37.390Z,67.4
2018-04-24T11:10:27.155Z,67.4
2018-04-24T11:11:17.804Z,67.4
2018-04-24T11:12:07.563Z,67.5
2018-04-24T11:12:57.364Z,67.6
2018-04-24T11:13:47.974Z,67.6
2018-04-24T11:14:38.079Z,67.6